Time;durP1;ratioP1;P1;durP2;ratioP2;P2;SDS_P1;SDS_P2;PMS_P1;PMS_P2;Temp;Humidity;BMP_temperature;BMP_pressure;BME280_temperature;BME280_humidity;BME280_pressure;Samples;Min_cycle;Max_cycle;Signal;HPM_P1;HPM_P2
2021/07/07 00:00:22;;;;;;;1.40;0.73;;;15.90;99.90;;;;;;4995896;28;20176;-70
2021/07/07 00:02:48;;;;;;;1.17;0.70;;;15.80;99.90;;;;;;4995830;28;20168;-71
2021/07/07 00:05:14;;;;;;;2.03;0.80;;;15.70;99.90;;;;;;4995765;28;20179;-70
2021/07/07 00:07:40;;;;;;;1.30;0.90;;;15.70;99.90;;;;;;4995660;28;20721;-71
2021/07/07 00:10:08;;;;;;;1.50;0.90;;;15.60;99.90;;;;;;4979482;28;20295;-71
2021/07/07 00:12:33;;;;;;;2.13;0.97;;;15.60;99.90;;;;;;4995944;28;20235;-70
2021/07/07 00:14:59;;;;;;;1.40;1.00;;;15.60;99.90;;;;;;4995572;28;20702;-71
2021/07/07 00:17:25;;;;;;;4.40;1.40;;;15.60;99.90;;;;;;4995698;28;20662;-70
2021/07/07 00:19:50;;;;;;;2.77;1.20;;;15.60;99.90;;;;;;4995500;28;20217;-71
2021/07/07 00:22:16;;;;;;;4.17;1.23;;;15.60;99.90;;;;;;4995623;28;20545;-71
2021/07/07 00:24:41;;;;;;;2.13;1.03;;;15.50;99.90;;;;;;5013357;28;20229;-71
2021/07/07 00:27:11;;;;;;;3.23;1.00;;;15.50;99.90;;;;;;4995538;28;20178;-71
2021/07/07 00:29:37;;;;;;;3.00;1.30;;;15.50;99.90;;;;;;4995232;28;20219;-70
2021/07/07 00:32:04;;;;;;;1.53;1.07;;;15.40;99.90;;;;;;5012862;28;20247;-71
2021/07/07 00:34:29;;;;;;;2.60;1.30;;;15.40;99.90;;;;;;4995363;28;20203;-71
2021/07/07 00:36:55;;;;;;;3.13;1.27;;;15.30;99.90;;;;;;4995285;28;20646;-71
2021/07/07 00:39:20;;;;;;;2.50;1.20;;;15.30;99.90;;;;;;5012808;28;20182;-71
2021/07/07 00:41:46;;;;;;;2.00;1.30;;;15.30;99.90;;;;;;5012852;28;20534;-71
2021/07/07 00:44:11;;;;;;;1.83;1.10;;;15.30;99.90;;;;;;4978926;28;20689;-70
2021/07/07 00:46:37;;;;;;;4.50;1.40;;;15.30;99.90;;;;;;4994684;28;20179;-71
2021/07/07 00:49:04;;;;;;;5.13;1.40;;;15.20;99.90;;;;;;4995024;28;20203;-71
2021/07/07 00:51:31;;;;;;;1.50;1.20;;;15.20;99.90;;;;;;4995192;28;20211;-70
2021/07/07 00:53:57;;;;;;;3.07;1.20;;;15.10;99.90;;;;;;5012598;28;20302;-71
2021/07/07 00:56:22;;;;;;;2.77;1.23;;;15.20;99.90;;;;;;4995066;28;20283;-71
2021/07/07 00:58:48;;;;;;;3.80;1.30;;;15.10;99.90;;;;;;5012834;28;20180;-70
2021/07/07 01:01:14;;;;;;;2.10;1.23;;;15.10;99.90;;;;;;4994908;28;20658;-71
2021/07/07 01:03:39;;;;;;;3.43;1.37;;;15.10;99.90;;;;;;4994982;28;20195;-71
2021/07/07 01:06:05;;;;;;;2.37;1.40;;;15.10;99.90;;;;;;5012539;28;20187;-70
2021/07/07 01:08:30;;;;;;;1.83;1.23;;;15.00;99.90;;;;;;4994878;28;20176;-70
2021/07/07 01:10:56;;;;;;;1.50;1.37;;;15.00;99.90;;;;;;4994541;28;20207;-70
2021/07/07 01:13:22;;;;;;;3.00;1.47;;;14.90;99.90;;;;;;4994765;28;20196;-70
2021/07/07 01:15:47;;;;;;;2.03;1.50;;;15.00;99.90;;;;;;4978400;28;20191;-71
2021/07/07 01:18:13;;;;;;;4.67;1.00;;;15.00;99.90;;;;;;4978412;28;20176;-70
2021/07/07 01:20:40;;;;;;;1.90;1.10;;;15.00;99.90;;;;;;5012016;28;20270;-70
2021/07/07 01:23:06;;;;;;;2.00;1.30;;;14.90;99.90;;;;;;4994871;28;20283;-71
2021/07/07 01:25:32;;;;;;;2.20;1.20;;;14.90;99.90;;;;;;5012655;28;20698;-71
2021/07/07 01:28:01;;;;;;;2.17;1.57;;;14.80;99.90;;;;;;4994688;28;20258;-70
2021/07/07 01:30:26;;;;;;;2.70;1.67;;;14.80;99.90;;;;;;4994964;28;20181;-70
2021/07/07 01:32:52;;;;;;;2.07;1.40;;;14.70;99.90;;;;;;4994980;28;20584;-71
2021/07/07 01:35:18;;;;;;;2.40;1.50;;;14.80;99.90;;;;;;4978301;28;20184;-71
2021/07/07 01:37:43;;;;;;;1.57;1.47;;;14.70;99.90;;;;;;4994594;28;20180;-71
2021/07/07 01:40:10;;;;;;;2.07;1.40;;;14.70;99.90;;;;;;4994285;28;20172;-71
2021/07/07 01:42:36;;;;;;;2.87;1.60;;;14.70;99.90;;;;;;4994518;28;20286;-71
2021/07/07 01:45:03;;;;;;;2.97;1.50;;;14.70;99.90;;;;;;4978367;28;20223;-70
2021/07/07 01:47:29;;;;;;;2.80;1.37;;;14.80;99.90;;;;;;4994951;28;20190;-71
2021/07/07 01:49:54;;;;;;;1.97;1.40;;;14.70;99.90;;;;;;4994233;28;20179;-71
2021/07/07 01:52:20;;;;;;;4.87;1.57;;;14.70;99.90;;;;;;5011963;28;20211;-71
2021/07/07 01:54:45;;;;;;;4.87;1.70;;;14.80;99.90;;;;;;4978047;28;20227;-70
2021/07/07 01:57:11;;;;;;;6.07;1.87;;;14.80;99.90;;;;;;4994484;28;20180;-70
2021/07/07 01:59:36;;;;;;;4.50;1.80;;;14.80;99.90;;;;;;4995782;28;20187;-71
2021/07/07 02:02:02;;;;;;;2.80;1.70;;;14.80;99.90;;;;;;5015761;28;20190;-70
2021/07/07 02:04:28;;;;;;;5.60;1.40;;;14.80;99.90;;;;;;4998299;28;20195;-70
2021/07/07 02:06:53;;;;;;;2.53;1.70;;;14.90;99.90;;;;;;4998250;28;20202;-70
2021/07/07 02:09:19;;;;;;;4.30;1.47;;;14.90;99.90;;;;;;5015450;28;20552;-71
2021/07/07 02:11:46;;;;;;;1.87;1.30;;;14.90;99.90;;;;;;5015386;28;20595;-71
2021/07/07 02:14:11;;;;;;;3.30;1.63;;;14.80;99.90;;;;;;4998159;28;20630;-70
2021/07/07 02:16:37;;;;;;;5.33;1.33;;;14.70;99.90;;;;;;4997925;28;20211;-70
2021/07/07 02:19:03;;;;;;;3.17;1.40;;;14.70;99.90;;;;;;5015266;28;20199;-71
2021/07/07 02:21:28;;;;;;;4.07;1.50;;;14.60;99.90;;;;;;4997218;28;20560;-70
2021/07/07 02:23:55;;;;;;;3.40;1.70;;;14.60;99.90;;;;;;5015336;28;20266;-70
2021/07/07 02:26:21;;;;;;;2.50;1.50;;;14.70;99.90;;;;;;4998328;28;20171;-71
2021/07/07 02:28:46;;;;;;;3.27;1.50;;;14.70;99.90;;;;;;4981166;28;20206;-70
2021/07/07 02:31:12;;;;;;;5.13;1.40;;;14.60;99.90;;;;;;4997651;28;20230;-70
2021/07/07 02:33:38;;;;;;;3.83;1.40;;;14.60;99.90;;;;;;4981375;28;20206;-70
2021/07/07 02:36:03;;;;;;;3.03;1.33;;;14.60;99.90;;;;;;4997651;28;20176;-71
2021/07/07 02:38:29;;;;;;;4.53;1.30;;;14.50;99.90;;;;;;4998006;28;20183;-71
2021/07/07 02:40:55;;;;;;;1.30;1.20;;;14.50;99.90;;;;;;4981165;28;20659;-70
2021/07/07 02:43:21;;;;;;;1.50;1.20;;;14.50;99.90;;;;;;4997473;28;20203;-70
2021/07/07 02:45:46;;;;;;;2.30;1.33;;;14.50;99.90;;;;;;5014939;28;20643;-70
2021/07/07 02:48:12;;;;;;;3.73;1.27;;;14.50;99.90;;;;;;4997488;28;20270;-71
2021/07/07 02:50:38;;;;;;;2.23;1.40;;;14.40;99.90;;;;;;4997154;28;20259;-71
2021/07/07 02:53:05;;;;;;;2.57;1.50;;;14.40;99.90;;;;;;5014886;28;20631;-71
2021/07/07 02:55:30;;;;;;;3.67;1.50;;;14.40;99.90;;;;;;5014784;28;20557;-70
2021/07/07 02:57:56;;;;;;;2.27;1.40;;;14.40;99.90;;;;;;4997228;28;20179;-71
2021/07/07 03:00:22;;;;;;;2.23;1.50;;;14.40;99.90;;;;;;5014538;28;20207;-71
2021/07/07 03:02:48;;;;;;;2.10;1.63;;;14.30;99.90;;;;;;4997258;28;20183;-71
2021/07/07 03:05:13;;;;;;;2.97;1.20;;;14.30;99.90;;;;;;4997186;28;20262;-70
2021/07/07 03:07:39;;;;;;;2.30;1.50;;;14.30;99.90;;;;;;4997132;28;20199;-70
2021/07/07 03:10:09;;;;;;;2.77;1.60;;;14.30;99.90;;;;;;4996395;28;20647;-71
2021/07/07 03:12:35;;;;;;;2.60;1.50;;;14.30;99.90;;;;;;5014282;28;20221;-70
2021/07/07 03:15:00;;;;;;;7.13;1.83;;;14.40;99.90;;;;;;5014275;28;20199;-70
2021/07/07 03:17:26;;;;;;;3.40;1.53;;;14.50;99.90;;;;;;4996906;28;20172;-70
2021/07/07 03:19:52;;;;;;;3.60;1.73;;;14.50;99.90;;;;;;4980352;28;20176;-70
2021/07/07 03:22:19;;;;;;;2.03;1.57;;;14.50;99.90;;;;;;4980551;28;20477;-71
2021/07/07 03:24:44;;;;;;;3.20;1.70;;;14.50;99.90;;;;;;4996680;28;20196;-71
2021/07/07 03:27:10;;;;;;;2.50;1.77;;;14.50;99.90;;;;;;4996718;28;20183;-70
2021/07/07 03:29:36;;;;;;;2.30;1.50;;;14.40;99.90;;;;;;4996424;28;20184;-70
2021/07/07 03:32:01;;;;;;;2.10;1.43;;;14.40;99.90;;;;;;5013991;28;20211;-70
2021/07/07 03:34:27;;;;;;;2.47;1.53;;;14.40;99.90;;;;;;5014053;28;20231;-71
2021/07/07 03:36:52;;;;;;;2.87;1.47;;;14.40;99.90;;;;;;4996524;28;20175;-71
2021/07/07 03:39:18;;;;;;;2.43;1.63;;;14.40;99.90;;;;;;4996072;28;20230;-70
2021/07/07 03:41:43;;;;;;;6.03;2.00;;;14.40;99.90;;;;;;5014084;28;20191;-70
2021/07/07 03:44:09;;;;;;;6.93;1.73;;;14.40;99.90;;;;;;5013850;28;20206;-71
2021/07/07 03:46:35;;;;;;;1.97;1.60;;;14.30;99.90;;;;;;5013895;28;20180;-70
2021/07/07 03:49:00;;;;;;;3.77;1.60;;;14.30;99.90;;;;;;4979800;28;20437;-70
2021/07/07 03:51:26;;;;;;;2.63;1.40;;;14.30;99.90;;;;;;4996222;28;20207;-70
2021/07/07 03:53:51;;;;;;;3.77;1.40;;;14.30;99.90;;;;;;4979802;28;20202;-70
2021/07/07 03:56:17;;;;;;;1.97;1.50;;;14.30;99.90;;;;;;4996130;28;20180;-70
2021/07/07 03:58:42;;;;;;;5.40;1.60;;;14.30;99.90;;;;;;5013359;28;20878;-70
2021/07/07 04:01:08;;;;;;;3.07;1.70;;;14.30;99.90;;;;;;4996067;28;20674;-71
2021/07/07 04:03:33;;;;;;;2.87;1.40;;;14.30;99.90;;;;;;4995977;28;20199;-70
2021/07/07 04:05:59;;;;;;;2.63;1.57;;;14.30;99.90;;;;;;4995992;28;20226;-70
2021/07/07 04:08:24;;;;;;;5.03;1.73;;;14.40;99.90;;;;;;5013393;28;20187;-70
2021/07/07 04:10:50;;;;;;;2.00;1.40;;;14.30;99.90;;;;;;4995403;28;20211;-71
2021/07/07 04:13:15;;;;;;;5.03;2.00;;;14.40;99.90;;;;;;4996205;28;20761;-71
2021/07/07 04:15:41;;;;;;;5.83;1.87;;;14.30;99.90;;;;;;5013360;28;20659;-71
2021/07/07 04:18:09;;;;;;;1.80;1.40;;;14.40;99.90;;;;;;5013272;28;20520;-71
2021/07/07 04:20:34;;;;;;;6.43;1.60;;;14.40;99.90;;;;;;4995831;28;20167;-70
2021/07/07 04:23:00;;;;;;;5.73;1.60;;;14.50;99.90;;;;;;4994836;28;20198;-70
2021/07/07 04:25:25;;;;;;;3.83;1.57;;;14.40;99.90;;;;;;4995579;28;20190;-71
2021/07/07 04:27:51;;;;;;;3.53;1.43;;;14.50;99.90;;;;;;4995549;28;20211;-70
2021/07/07 04:30:17;;;;;;;2.80;1.60;;;14.50;99.90;;;;;;4979021;28;20176;-70
2021/07/07 04:32:43;;;;;;;2.17;1.63;;;14.50;99.90;;;;;;4995322;28;20203;-70
2021/07/07 04:35:10;;;;;;;3.80;1.70;;;14.50;99.90;;;;;;4995539;28;20546;-70
2021/07/07 04:37:36;;;;;;;3.23;1.77;;;14.50;99.90;;;;;;4995431;28;20175;-70
2021/07/07 04:40:03;;;;;;;7.57;1.50;;;14.60;99.90;;;;;;4995030;28;20179;-70
2021/07/07 04:42:29;;;;;;;3.67;1.70;;;14.60;99.90;;;;;;5012748;28;20198;-70
2021/07/07 04:44:54;;;;;;;2.20;1.40;;;14.70;99.90;;;;;;4995143;28;20207;-71
2021/07/07 04:47:20;;;;;;;2.27;1.43;;;14.70;99.90;;;;;;4995324;28;20172;-70
2021/07/07 04:49:45;;;;;;;3.10;1.47;;;14.70;99.90;;;;;;4995070;28;20184;-70
2021/07/07 04:52:11;;;;;;;1.80;1.40;;;14.80;99.90;;;;;;5012772;28;20195;-71
2021/07/07 04:54:37;;;;;;;2.67;2.03;;;14.80;99.90;;;;;;4995192;28;20234;-70
2021/07/07 04:57:02;;;;;;;2.00;1.40;;;14.90;99.90;;;;;;4978839;28;20179;-70
2021/07/07 04:59:29;;;;;;;5.83;1.60;;;15.00;99.90;;;;;;4978602;28;20171;-70
2021/07/07 05:01:54;;;;;;;2.87;1.20;;;15.20;99.90;;;;;;4995135;28;20175;-70
2021/07/07 05:04:20;;;;;;;2.90;1.40;;;15.40;99.90;;;;;;5019713;23;20580;-70
2021/07/07 05:06:45;;;;;;;2.03;1.53;;;15.60;99.90;;;;;;5032176;28;20221;-70
2021/07/07 05:09:11;;;;;;;3.33;1.40;;;15.80;99.90;;;;;;5030753;28;20175;-70
2021/07/07 05:11:36;;;;;;;3.93;1.70;;;15.90;99.90;;;;;;5014453;28;20560;-70
2021/07/07 05:14:02;;;;;;;4.50;1.30;;;16.10;99.90;;;;;;5014418;28;20202;-70
2021/07/07 05:16:28;;;;;;;2.03;1.40;;;16.20;99.90;;;;;;5031000;28;20171;-70
2021/07/07 05:18:53;;;;;;;4.13;1.30;;;16.30;99.90;;;;;;5031112;28;20270;-70
2021/07/07 05:21:19;;;;;;;3.90;1.37;;;16.40;99.90;;;;;;5031004;28;20185;-70
2021/07/07 05:23:44;;;;;;;3.33;1.40;;;16.40;99.90;;;;;;5031890;28;20191;-70
2021/07/07 05:26:10;;;;;;;4.47;1.13;;;16.50;99.90;;;;;;5030819;28;20179;-70
2021/07/07 05:28:35;;;;;;;2.50;1.40;;;16.60;99.90;;;;;;5030762;28;20183;-70
2021/07/07 05:31:04;;;;;;;3.33;1.10;;;16.50;99.90;;;;;;5030658;28;20226;-70
2021/07/07 05:33:34;;;;;;;1.60;1.07;;;16.60;99.90;;;;;;5033848;28;20232;-70
2021/07/07 05:36:01;;;;;;;2.93;1.27;;;16.60;99.90;;;;;;5037385;28;20254;-70
2021/07/07 05:38:27;;;;;;;3.03;1.27;;;16.80;99.90;;;;;;5038544;28;20193;-70
2021/07/07 05:40:52;;;;;;;4.17;1.53;;;16.90;99.90;;;;;;5038367;28;20178;-70
2021/07/07 05:43:18;;;;;;;5.30;1.17;;;17.10;99.90;;;;;;5037332;28;20201;-70
2021/07/07 05:45:44;;;;;;;4.40;1.60;;;17.30;99.90;;;;;;5037237;28;20171;-70
2021/07/07 05:48:09;;;;;;;4.73;1.13;;;18.00;99.90;;;;;;5038394;28;20174;-70
2021/07/07 05:50:35;;;;;;;3.90;1.17;;;18.90;99.90;;;;;;5038085;28;20580;-70
2021/07/07 05:53:01;;;;;;;4.90;0.97;;;19.80;99.90;;;;;;5037116;28;20182;-71
2021/07/07 05:55:28;;;;;;;3.33;1.17;;;19.50;99.90;;;;;;5038359;28;20179;-71
2021/07/07 05:57:54;;;;;;;3.90;1.20;;;19.00;99.90;;;;;;5037151;28;20685;-70
2021/07/07 06:00:21;;;;;;;2.40;1.27;;;18.90;99.90;;;;;;5038152;28;20372;-70
2021/07/07 06:02:48;;;;;;;3.33;1.10;;;19.00;99.90;;;;;;5037035;28;20178;-70
2021/07/07 06:05:14;;;;;;;2.33;1.10;;;19.20;99.90;;;;;;5037932;28;20203;-70
2021/07/07 06:07:39;;;;;;;3.60;1.10;;;19.40;99.90;;;;;;5036926;28;20175;-70
2021/07/07 06:10:06;;;;;;;3.87;1.27;;;19.70;99.90;;;;;;5036818;28;20183;-70
2021/07/07 06:12:31;;;;;;;3.23;1.10;;;20.10;99.90;;;;;;5036851;28;20202;-70
2021/07/07 06:14:57;;;;;;;2.17;1.13;;;20.70;99.90;;;;;;5037192;28;20203;-71
2021/07/07 06:17:22;;;;;;;2.53;1.30;;;21.40;99.90;;;;;;5036916;28;20665;-71
2021/07/07 06:19:48;;;;;;;3.70;1.10;;;21.90;99.90;;;;;;5037898;28;20543;-71
2021/07/07 06:22:14;;;;;;;4.37;1.30;;;22.40;99.90;;;;;;5038093;28;20516;-71
2021/07/07 06:24:39;;;;;;;4.73;1.50;;;22.80;99.90;;;;;;5037004;28;20275;-71
2021/07/07 06:27:05;;;;;;;1.67;0.87;;;23.30;99.90;;;;;;5038232;28;20190;-71
2021/07/07 06:29:30;;;;;;;1.70;1.00;;;23.80;99.90;;;;;;5036671;28;20179;-71
2021/07/07 06:31:56;;;;;;;2.83;0.93;;;24.10;99.90;;;;;;5036805;28;20214;-71
2021/07/07 06:34:21;;;;;;;2.53;1.00;;;24.00;99.90;;;;;;5037904;28;20564;-71
2021/07/07 06:36:47;;;;;;;2.60;1.10;;;23.60;99.90;;;;;;5036716;28;20178;-71
2021/07/07 06:39:13;;;;;;;2.53;1.10;;;22.90;99.90;;;;;;5036583;28;20193;-71
2021/07/07 06:41:38;;;;;;;3.30;1.37;;;22.50;99.90;;;;;;5020187;28;20217;-71
2021/07/07 06:44:04;;;;;;;3.97;1.03;;;22.10;99.90;;;;;;5037823;28;20202;-70
2021/07/07 06:46:30;;;;;;;2.90;1.00;;;22.00;99.90;;;;;;5032884;28;20182;-71
2021/07/07 06:48:56;;;;;;;2.57;1.00;;;21.80;99.90;;;;;;5033326;28;20178;-71
2021/07/07 06:51:21;;;;;;;8.10;1.40;;;21.70;99.90;;;;;;5033392;28;20649;-70
2021/07/07 06:53:47;;;;;;;3.40;1.30;;;22.00;99.90;;;;;;5034657;28;20199;-70
2021/07/07 06:56:12;;;;;;;1.97;1.00;;;22.30;99.90;;;;;;5033412;28;20199;-70
2021/07/07 06:58:38;;;;;;;2.23;1.07;;;22.10;99.90;;;;;;5034478;28;20637;-71
2021/07/07 07:01:04;;;;;;;2.77;1.00;;;21.90;99.90;;;;;;5034584;28;20545;-71
2021/07/07 07:03:30;;;;;;;5.07;1.30;;;21.70;99.90;;;;;;5033062;28;20559;-70
2021/07/07 07:05:55;;;;;;;2.93;1.20;;;21.80;99.90;;;;;;5033198;28;20182;-71
2021/07/07 07:08:21;;;;;;;2.93;1.00;;;21.90;99.90;;;;;;5033214;28;20210;-71
2021/07/07 07:10:46;;;;;;;4.80;1.20;;;21.90;99.90;;;;;;5032883;28;20195;-71
2021/07/07 07:13:12;;;;;;;1.40;0.77;;;22.00;99.90;;;;;;5033096;28;20182;-71
2021/07/07 07:15:38;;;;;;;3.07;1.17;;;22.30;99.90;;;;;;5033014;28;20245;-71
2021/07/07 07:18:04;;;;;;;7.00;1.20;;;22.60;99.90;;;;;;5034204;28;20208;-71
2021/07/07 07:20:30;;;;;;;4.57;1.03;;;22.70;99.90;;;;;;5032808;28;20175;-71
2021/07/07 07:22:59;;;;;;;3.53;1.00;;;22.60;99.90;;;;;;5032917;28;20167;-71
2021/07/07 07:25:24;;;;;;;4.20;1.30;;;22.50;99.90;;;;;;5032869;28;20267;-70
2021/07/07 07:27:50;;;;;;;4.77;1.07;;;22.40;99.90;;;;;;5032859;28;20253;-70
2021/07/07 07:30:16;;;;;;;2.53;0.90;;;22.10;99.90;;;;;;5034081;28;20217;-70
2021/07/07 07:32:41;;;;;;;2.37;1.00;;;22.00;99.90;;;;;;5032558;28;20203;-70
2021/07/07 07:35:07;;;;;;;1.90;1.00;;;22.20;99.90;;;;;;5032654;28;20211;-71
2021/07/07 07:37:50;;;;;;;2.40;1.17;;;22.70;99.90;;;;;;5032575;28;20183;-71
2021/07/07 07:40:21;;;;;;;2.23;0.90;;;22.90;99.90;;;;;;5032590;28;20591;-71
2021/07/07 07:42:47;;;;;;;7.63;1.73;;;22.70;99.90;;;;;;5016942;28;20364;-71
2021/07/07 07:45:12;;;;;;;2.53;0.90;;;22.50;99.90;;;;;;5032336;28;20678;-71
2021/07/07 07:47:39;;;;;;;4.40;1.10;;;22.30;99.90;;;;;;5032421;28;20173;-71
2021/07/07 07:50:05;;;;;;;3.00;1.27;;;22.30;99.90;;;;;;5032252;28;20222;-71
2021/07/07 07:52:31;;;;;;;3.10;1.03;;;22.10;99.90;;;;;;5032333;28;20577;-71
2021/07/07 07:54:56;;;;;;;1.70;0.77;;;22.00;99.90;;;;;;5015644;28;20198;-71
2021/07/07 07:57:22;;;;;;;3.73;1.30;;;22.00;99.90;;;;;;5031245;28;20190;-71
2021/07/07 07:59:47;;;;;;;4.00;0.90;;;22.10;99.90;;;;;;5015864;28;20171;-70
2021/07/07 08:02:13;;;;;;;3.23;1.30;;;22.10;99.90;;;;;;5033439;28;20182;-70
2021/07/07 08:04:38;;;;;;;2.53;1.03;;;22.00;99.90;;;;;;5031993;28;20206;-70
2021/07/07 08:07:04;;;;;;;3.73;1.10;;;22.00;99.90;;;;;;5032086;28;20207;-70
2021/07/07 08:09:29;;;;;;;2.73;1.10;;;21.80;99.90;;;;;;5033340;28;20197;-70
2021/07/07 08:11:55;;;;;;;4.63;1.37;;;21.70;99.90;;;;;;5015410;28;20207;-71
2021/07/07 08:14:21;;;;;;;1.60;1.10;;;21.70;99.90;;;;;;5015331;28;20251;-71
2021/07/07 08:16:46;;;;;;;5.50;1.30;;;21.80;99.90;;;;;;5033082;28;20178;-71
2021/07/07 08:19:12;;;;;;;2.70;1.20;;;21.90;99.90;;;;;;5032866;28;20221;-71
2021/07/07 08:21:37;;;;;;;2.00;1.30;;;21.80;99.90;;;;;;5031842;28;20175;-71
2021/07/07 08:24:04;;;;;;;2.80;1.20;;;21.80;99.90;;;;;;5031684;28;20199;-71
2021/07/07 08:26:30;;;;;;;3.53;1.00;;;21.80;99.90;;;;;;5031925;28;20255;-71
2021/07/07 08:28:58;;;;;;;2.03;1.43;;;21.90;99.90;;;;;;5032660;28;20638;-71
2021/07/07 08:31:24;;;;;;;5.47;1.07;;;22.20;99.90;;;;;;5015491;28;20199;-71
2021/07/07 08:33:50;;;;;;;2.60;1.10;;;22.30;99.90;;;;;;5031761;28;20187;-70
2021/07/07 08:36:20;;;;;;;3.43;1.27;;;22.80;99.90;;;;;;5032735;28;20171;-71
2021/07/07 08:38:45;;;;;;;4.77;1.37;;;23.40;99.90;;;;;;5031672;28;20167;-70
2021/07/07 08:41:11;;;;;;;4.60;1.50;;;23.50;99.90;;;;;;5032696;28;20716;-70
2021/07/07 08:43:37;;;;;;;4.57;1.20;;;23.50;99.90;;;;;;5031253;28;20702;-70
2021/07/07 08:46:02;;;;;;;4.17;1.10;;;23.60;99.90;;;;;;5031450;28;20175;-70
2021/07/07 08:48:28;;;;;;;2.60;1.17;;;23.60;99.90;;;;;;5015187;28;20179;-71
2021/07/07 08:50:58;;;;;;;5.20;1.30;;;23.40;99.90;;;;;;5031168;28;20254;-70
2021/07/07 08:53:25;;;;;;;2.80;1.17;;;23.30;99.90;;;;;;5031235;28;20282;-71
2021/07/07 08:55:52;;;;;;;5.83;1.20;;;23.30;99.90;;;;;;5031371;28;20171;-71
2021/07/07 08:58:17;;;;;;;1.97;0.90;;;23.20;99.90;;;;;;5031002;28;20269;-71
2021/07/07 09:00:43;;;;;;;2.73;1.00;;;23.20;99.90;;;;;;5030995;28;20254;-71
2021/07/07 09:03:15;;;;;;;4.50;1.20;;;23.10;99.90;;;;;;5030966;28;20211;-70
2021/07/07 09:06:03;;;;;;;4.60;1.07;;;23.20;99.90;;;;;;5031102;28;20155;-70
2021/07/07 09:08:33;;;;;;;2.87;1.07;;;23.30;99.90;;;;;;5030580;28;20162;-71
2021/07/07 09:11:37;;;;;;;2.27;1.00;;;23.50;99.90;;;;;;5031028;28;20248;-71
2021/07/07 09:14:09;;;;;;;3.67;1.10;;;23.60;99.90;;;;;;4990406;28;20206;-71
2021/07/07 09:16:50;;;;;;;4.00;1.10;;;23.60;99.90;;;;;;5022497;28;20183;-70
2021/07/07 09:19:20;;;;;;;4.40;1.30;;;23.70;99.90;;;;;;5030705;28;20661;-71
2021/07/07 09:21:56;;;;;;;3.30;1.10;;;23.50;99.90;;;;;;5030837;28;20167;-70
2021/07/07 09:24:24;;;;;;;6.47;0.97;;;23.60;99.90;;;;;;5030775;28;20190;-70
2021/07/07 09:27:04;;;;;;;2.53;1.00;;;23.70;99.90;;;;;;5032019;28;20228;-71
2021/07/07 09:29:54;;;;;;;2.70;0.90;;;23.50;99.90;;;;;;5030684;28;20171;-71
2021/07/07 09:32:20;;;;;;;4.78;1.00;;;23.80;99.90;;;;;;5032045;28;20183;-71
2021/07/07 09:34:51;;;;;;;3.00;0.90;;;24.00;99.90;;;;;;5031049;28;20190;-71
2021/07/07 09:37:25;;;;;;;3.23;0.90;;;23.90;99.90;;;;;;5030868;28;20202;-70
2021/07/07 09:39:52;;;;;;;3.67;1.03;;;23.80;99.90;;;;;;5031775;28;20654;-71
2021/07/07 09:42:28;;;;;;;2.43;0.90;;;23.60;99.90;;;;;;5030612;28;20711;-71
2021/07/07 09:44:55;;;;;;;2.63;1.00;;;23.50;99.90;;;;;;5030557;28;20720;-71
2021/07/07 09:47:21;;;;;;;5.93;1.20;;;23.70;99.90;;;;;;5030771;28;20175;-71
2021/07/07 09:49:48;;;;;;;2.60;0.97;;;23.70;99.90;;;;;;5014050;28;20190;-71
2021/07/07 09:52:16;;;;;;;4.70;1.00;;;23.60;99.90;;;;;;5030472;28;20199;-70
2021/07/07 09:54:42;;;;;;;4.07;0.93;;;23.60;99.90;;;;;;5030409;28;20682;-71
2021/07/07 09:57:08;;;;;;;4.00;1.17;;;23.60;99.90;;;;;;5014010;28;20308;-71
2021/07/07 09:59:36;;;;;;;4.50;1.07;;;23.90;99.90;;;;;;5030244;28;20175;-71
2021/07/07 10:02:02;;;;;;;2.27;0.80;;;24.00;99.90;;;;;;5014135;28;20179;-71
2021/07/07 10:04:32;;;;;;;1.90;0.77;;;24.20;99.90;;;;;;5030434;28;20218;-71
2021/07/07 10:06:58;;;;;;;2.77;0.80;;;24.20;99.90;;;;;;5030688;28;20217;-71
2021/07/07 10:09:24;;;;;;;5.53;1.13;;;24.40;99.90;;;;;;5013721;28;20205;-71
2021/07/07 10:11:50;;;;;;;1.80;0.90;;;24.40;99.90;;;;;;5030311;28;20682;-71
2021/07/07 10:14:15;;;;;;;2.47;1.00;;;24.40;99.90;;;;;;5013805;28;20198;-71
2021/07/07 10:16:41;;;;;;;2.55;1.00;;;24.40;99.90;;;;;;5013833;28;20265;-71
2021/07/07 10:19:07;;;;;;;2.23;0.90;;;24.50;99.90;;;;;;5030108;28;20175;-71
2021/07/07 10:21:32;;;;;;;2.90;1.02;;;24.70;99.90;;;;;;5033368;28;20186;-71
2021/07/07 10:23:58;;;;;;;2.67;0.90;;;24.70;99.90;;;;;;5033932;28;20195;-71
2021/07/07 10:26:23;;;;;;;2.27;0.93;;;24.70;99.90;;;;;;5033931;28;20185;-70
2021/07/07 10:28:49;;;;;;;2.03;0.80;;;24.70;99.90;;;;;;5035230;28;20210;-70
2021/07/07 10:31:15;;;;;;;3.13;0.83;;;24.80;99.90;;;;;;5033907;28;20198;-70
2021/07/07 10:33:40;;;;;;;3.50;1.10;;;24.60;99.90;;;;;;5033770;28;20195;-71
2021/07/07 10:36:21;;;;;;;4.87;1.07;;;24.30;99.90;;;;;;5034211;28;20171;-70
2021/07/07 10:38:55;;;;;;;1.47;0.63;;;24.20;99.90;;;;;;5034731;28;20175;-71
2021/07/07 10:41:46;;;;;;;1.63;1.00;;;24.10;99.90;;;;;;5033799;28;20250;-70
2021/07/07 10:44:24;;;;;;;1.97;0.67;;;23.90;99.90;;;;;;5034794;28;20202;-70
2021/07/07 10:47:00;;;;;;;2.30;0.80;;;23.90;99.90;;;;;;5033814;28;20169;-70
2021/07/07 10:49:30;;;;;;;2.33;0.70;;;23.90;99.90;;;;;;5034595;28;20151;-70
2021/07/07 10:51:57;;;;;;;4.77;0.97;;;23.80;99.90;;;;;;5033543;28;20187;-71
2021/07/07 10:54:51;;;;;;;3.30;0.80;;;23.90;99.90;;;;;;5033466;28;20195;-71
2021/07/07 10:57:21;;;;;;;2.40;0.90;;;24.00;99.90;;;;;;5031580;28;20562;-71
2021/07/07 10:59:47;;;;;;;3.50;0.90;;;24.20;99.90;;;;;;5033247;28;20171;-71
2021/07/07 11:02:16;;;;;;;2.73;0.70;;;24.20;99.90;;;;;;5033448;28;20551;-71
2021/07/07 11:04:46;;;;;;;4.10;0.67;;;24.20;99.90;;;;;;5053824;23;20238;-83
2021/07/07 11:07:33;;;;;;;1.70;0.80;;;24.20;99.90;;;;;;4993311;28;20164;-83
2021/07/07 11:10:00;;;;;;;3.77;1.03;;;24.10;99.90;;;;;;5008768;28;20180;-82
2021/07/07 11:12:35;;;;;;;4.57;1.20;;;24.10;99.90;;;;;;4969425;28;20624;-82
2021/07/07 11:15:14;;;;;;;2.00;1.00;;;24.00;99.90;;;;;;5001174;28;20190;-82
2021/07/07 11:17:44;;;;;;;2.77;1.00;;;24.00;99.90;;;;;;5001939;28;20686;-82
2021/07/07 11:20:14;;;;;;;3.10;0.80;;;23.90;99.90;;;;;;5001227;28;20534;-83
2021/07/07 11:22:43;;;;;;;2.37;0.90;;;23.80;99.90;;;;;;5001481;28;20206;-82
2021/07/07 11:25:10;;;;;;;2.70;1.10;;;23.70;99.90;;;;;;5002256;28;20227;-82
2021/07/07 11:27:36;;;;;;;8.80;1.17;;;23.60;99.90;;;;;;4969314;28;20609;-83
2021/07/07 11:30:04;;;;;;;3.43;1.00;;;23.70;99.90;;;;;;5000610;28;20176;-83
2021/07/07 11:32:38;;;;;;;2.27;1.00;;;23.70;99.90;;;;;;4967914;28;20279;-82
2021/07/07 11:35:09;;;;;;;2.90;0.80;;;23.70;99.90;;;;;;4984318;28;20202;-83
2021/07/07 11:37:35;;;;;;;1.97;0.87;;;23.80;99.90;;;;;;4984014;28;20176;-82
2021/07/07 11:40:11;;;;;;;4.47;0.90;;;24.00;99.90;;;;;;4983860;28;20182;-83
2021/07/07 11:42:53;;;;;;;3.83;1.20;;;24.00;99.90;;;;;;4986320;28;20183;-83
2021/07/07 11:45:20;;;;;;;2.53;0.63;;;24.20;99.90;;;;;;5001553;28;20221;-83
2021/07/07 11:47:54;;;;;;;2.10;0.87;;;24.20;99.90;;;;;;4984721;28;20183;-82
2021/07/07 11:50:19;;;;;;;3.30;0.80;;;24.30;99.90;;;;;;4984376;28;20611;-82
2021/07/07 11:52:59;;;;;;;2.87;0.80;;;24.40;99.90;;;;;;4983946;28;20212;-82
2021/07/07 11:55:45;;;;;;;3.30;0.97;;;24.50;99.90;;;;;;4983639;28;20191;-83
2021/07/07 11:58:10;;;;;;;3.13;0.63;;;24.60;99.90;;;;;;4984112;28;20191;-82
2021/07/07 12:00:37;;;;;;;2.43;0.90;;;24.80;99.90;;;;;;4984626;28;20180;-83
2021/07/07 12:03:03;;;;;;;3.07;0.70;;;24.80;99.90;;;;;;4983606;28;20230;-82
2021/07/07 12:05:28;;;;;;;1.77;0.60;;;24.80;99.90;;;;;;5000121;28;20215;-83
2021/07/07 12:08:15;;;;;;;4.80;0.93;;;24.60;99.90;;;;;;4983471;28;20606;-82
2021/07/07 12:10:41;;;;;;;4.83;1.00;;;24.30;99.90;;;;;;4983087;28;20257;-83
2021/07/07 12:13:22;;;;;;;2.30;0.80;;;24.30;99.90;;;;;;4999162;28;20623;-82
2021/07/07 12:15:48;;;;;;;1.73;0.98;;;24.50;99.90;;;;;;4983310;28;20442;-82
2021/07/07 12:18:27;;;;;;;2.87;0.73;;;24.70;99.90;;;;;;5000564;28;20191;-82
2021/07/07 12:20:53;;;;;;;1.67;0.80;;;24.70;99.90;;;;;;4999676;28;20174;-83
2021/07/07 12:23:19;;;;;;;4.17;0.70;;;24.80;99.90;;;;;;5000462;28;20225;-82
2021/07/07 12:25:45;;;;;;;3.87;1.07;;;24.80;99.90;;;;;;4983048;28;20263;-82
2021/07/07 12:28:10;;;;;;;3.20;0.83;;;24.90;99.90;;;;;;4983011;28;20720;-82
2021/07/07 12:30:36;;;;;;;3.13;0.90;;;24.90;99.90;;;;;;4982407;28;20179;-82
2021/07/07 12:33:02;;;;;;;3.65;0.90;;;24.90;99.90;;;;;;4999597;28;20250;-83
2021/07/07 12:35:28;;;;;;;2.75;0.80;;;24.80;99.90;;;;;;4983840;28;20203;-82
2021/07/07 12:37:53;;;;;;;3.37;1.00;;;24.80;99.90;;;;;;4984699;28;20203;-83
2021/07/07 12:40:21;;;;;;;1.77;0.80;;;24.90;99.90;;;;;;4983194;28;20172;-83
2021/07/07 12:42:51;;;;;;;2.27;0.80;;;24.90;99.90;;;;;;4999682;28;20179;-82
2021/07/07 12:45:17;;;;;;;4.40;0.88;;;24.90;99.90;;;;;;4984169;28;20751;-82
2021/07/07 12:47:44;;;;;;;3.30;0.70;;;24.80;99.90;;;;;;4984207;28;20199;-82